Time;durP1;ratioP1;P1;durP2;ratioP2;P2;SDS_P1;SDS_P2;PMS_P1;PMS_P2;Temp;Humidity;BMP_temperature;BMP_pressure;BME280_temperature;BME280_humidity;BME280_pressure;Samples;Min_cycle;Max_cycle;Signal;HPM_P1;HPM_P2
2021/09/27 00:00:59;;;;;;;2.50;0.50;;;9.30;99.90;;;;;;5029948;28;20092;-64
2021/09/27 00:03:27;;;;;;;3.10;0.60;;;9.20;99.90;;;;;;5029969;28;20032;-64
2021/09/27 00:05:53;;;;;;;1.42;0.60;;;9.20;99.90;;;;;;5030056;28;20372;-65
2021/09/27 00:08:20;;;;;;;0.50;0.45;;;9.20;99.90;;;;;;5030004;28;20034;-65
2021/09/27 00:10:54;;;;;;;1.63;0.80;;;9.30;99.90;;;;;;5029790;28;20512;-65
2021/09/27 00:13:21;;;;;;;1.10;0.57;;;9.30;99.90;;;;;;5029938;28;20389;-65
2021/09/27 00:15:52;;;;;;;0.88;0.50;;;9.30;99.90;;;;;;5029883;28;20108;-65
2021/09/27 00:28:25;;;;;;;2.67;0.50;;;9.30;99.90;;;;;;5029806;28;20098;-64
2021/09/27 00:30:51;;;;;;;2.83;0.60;;;9.30;99.90;;;;;;5029523;28;20029;-67
2021/09/27 00:33:18;;;;;;;1.67;0.60;;;9.30;99.90;;;;;;5029550;28;20028;-65
2021/09/27 00:35:44;;;;;;;5.07;2.03;;;9.20;99.90;;;;;;5029910;28;20029;-65
2021/09/27 00:38:11;;;;;;;1.27;0.65;;;9.20;99.90;;;;;;5029450;28;20366;-65
2021/09/27 00:40:55;;;;;;;1.88;0.65;;;9.10;99.90;;;;;;5029457;28;20120;-65
2021/09/27 00:43:22;;;;;;;1.73;0.68;;;9.10;99.90;;;;;;5029367;28;20021;-65
2021/09/27 00:45:52;;;;;;;2.83;0.85;;;9.00;99.90;;;;;;5029267;28;20025;-65
2021/09/27 00:48:18;;;;;;;0.98;0.70;;;8.90;99.90;;;;;;5029462;28;20036;-65
2021/09/27 00:50:48;;;;;;;1.73;0.63;;;9.00;99.90;;;;;;5029730;28;20040;-65
2021/09/27 00:53:29;;;;;;;0.77;0.60;;;9.00;99.90;;;;;;5029377;28;20030;-65
2021/09/27 00:55:56;;;;;;;2.45;0.50;;;9.00;99.90;;;;;;5029000;28;20052;-65
2021/09/27 00:58:23;;;;;;;1.42;0.60;;;9.10;99.90;;;;;;5029422;28;20139;-65
2021/09/27 01:00:51;;;;;;;3.00;0.50;;;9.00;99.90;;;;;;5029029;28;20032;-65
2021/09/27 01:03:17;;;;;;;0.40;0.40;;;9.10;99.90;;;;;;5029285;28;20060;-65
2021/09/27 01:05:51;;;;;;;2.17;0.65;;;9.00;99.90;;;;;;5029212;28;20017;-65
2021/09/27 01:08:44;;;;;;;1.92;0.50;;;9.00;99.90;;;;;;5029109;28;20425;-65
2021/09/27 01:11:44;;;;;;;0.63;0.60;;;8.90;99.90;;;;;;5028924;28;20032;-65
2021/09/27 01:14:29;;;;;;;0.80;0.60;;;8.80;99.90;;;;;;5028831;28;20022;-65
2021/09/27 01:17:17;;;;;;;2.97;0.55;;;8.80;99.90;;;;;;5028751;28;20037;-65
2021/09/27 01:20:19;;;;;;;2.92;0.57;;;8.80;99.90;;;;;;5016365;28;20033;-65
2021/09/27 01:23:04;;;;;;;5.85;1.23;;;8.80;99.90;;;;;;5028920;28;20025;-65
2021/09/27 01:26:05;;;;;;;1.83;0.57;;;8.80;99.90;;;;;;5028658;28;20071;-65
2021/09/27 01:29:02;;;;;;;0.73;0.70;;;8.70;99.90;;;;;;5028982;28;20102;-65
2021/09/27 01:31:39;;;;;;;0.73;0.40;;;8.60;99.90;;;;;;5028672;28;20456;-65
2021/09/27 01:34:24;;;;;;;1.52;0.60;;;8.50;99.90;;;;;;5015106;28;20026;-65
2021/09/27 01:37:00;;;;;;;2.25;0.50;;;8.60;99.90;;;;;;5028365;28;20033;-65
2021/09/27 01:39:43;;;;;;;4.70;1.00;;;8.60;99.90;;;;;;5028632;28;20021;-65
2021/09/27 01:42:21;;;;;;;1.52;0.60;;;8.60;99.90;;;;;;5028520;28;20113;-65
2021/09/27 01:45:14;;;;;;;4.05;0.65;;;8.60;99.90;;;;;;5028822;28;20029;-65
2021/09/27 01:47:47;;;;;;;0.73;0.50;;;8.60;99.90;;;;;;5028411;28;20100;-65
2021/09/27 01:50:22;;;;;;;1.13;0.60;;;8.60;99.90;;;;;;5028435;28;20156;-65
2021/09/27 01:53:14;;;;;;;0.75;0.60;;;8.60;99.90;;;;;;5027250;28;20029;-65
2021/09/27 01:55:56;;;;;;;0.77;0.60;;;8.60;99.90;;;;;;5028349;28;20037;-65
2021/09/27 01:58:34;;;;;;;2.90;0.50;;;8.50;99.90;;;;;;5028556;28;20113;-65
2021/09/27 02:01:06;;;;;;;2.20;0.60;;;8.50;99.90;;;;;;5028138;28;20021;-65
2021/09/27 02:03:43;;;;;;;2.40;0.63;;;8.50;99.90;;;;;;5028371;28;20032;-65
2021/09/27 02:06:31;;;;;;;4.63;0.60;;;8.40;99.90;;;;;;5028213;28;20619;-65
2021/09/27 02:09:17;;;;;;;6.32;0.80;;;8.50;99.90;;;;;;5028549;28;20045;-64
2021/09/27 02:11:47;;;;;;;2.67;0.80;;;8.30;99.90;;;;;;5015796;28;20033;-64
2021/09/27 02:14:15;;;;;;;3.10;0.85;;;8.30;99.90;;;;;;5028310;28;20110;-65
2021/09/27 02:16:56;;;;;;;1.13;0.70;;;8.30;99.90;;;;;;5028509;28;20060;-64
2021/09/27 02:19:52;;;;;;;1.63;0.75;;;8.30;99.90;;;;;;5028243;28;20025;-64
2021/09/27 02:22:47;;;;;;;2.03;0.60;;;8.30;99.90;;;;;;5018151;28;20508;-64
2021/09/27 02:54:37;;;;;;;8.65;0.82;;;8.00;99.90;;;;;;5030920;28;20034;-64
2021/09/27 02:57:19;;;;;;;1.08;0.60;;;8.00;99.90;;;;;;5030793;28;20054;-64
2021/09/27 03:00:16;;;;;;;4.22;0.50;;;7.90;99.90;;;;;;5029920;28;20025;-63
2021/09/27 03:03:05;;;;;;;1.35;0.70;;;8.00;99.90;;;;;;5017307;28;20033;-64
2021/09/27 03:06:08;;;;;;;6.07;0.80;;;7.90;99.90;;;;;;5030982;28;20021;-64
2021/09/27 03:09:10;;;;;;;2.97;0.65;;;7.90;99.90;;;;;;5030746;28;20038;-64
2021/09/27 03:11:48;;;;;;;0.88;0.80;;;7.90;99.90;;;;;;5020248;28;20025;-64
2021/09/27 03:14:47;;;;;;;3.13;0.93;;;7.90;99.90;;;;;;5030674;28;20018;-64
2021/09/27 03:17:25;;;;;;;4.35;1.58;;;7.80;99.90;;;;;;5030957;28;20032;-64
2021/09/27 03:19:59;;;;;;;3.85;0.88;;;7.80;99.90;;;;;;5018087;28;20070;-64
2021/09/27 03:22:35;;;;;;;5.82;1.33;;;7.80;99.90;;;;;;5030635;28;20026;-64
2021/09/27 03:25:25;;;;;;;5.03;1.42;;;7.80;99.90;;;;;;5030708;28;20021;-64
2021/09/27 03:28:12;;;;;;;10.80;1.67;;;7.70;99.90;;;;;;5030822;28;20061;-64
2021/09/27 03:31:19;;;;;;;11.18;1.80;;;7.80;99.90;;;;;;5034195;28;20427;-64
2021/09/27 03:34:02;;;;;;;5.80;1.73;;;7.80;99.90;;;;;;5019468;28;20037;-64
2021/09/27 03:36:31;;;;;;;4.15;1.70;;;7.80;99.90;;;;;;5030313;28;20029;-64
2021/09/27 03:39:15;;;;;;;2.80;1.73;;;7.80;99.90;;;;;;5030360;28;20018;-64
2021/09/27 03:41:47;;;;;;;6.00;1.92;;;7.90;99.90;;;;;;5030243;28;20025;-64
2021/09/27 03:44:42;;;;;;;4.50;2.20;;;7.90;99.90;;;;;;5030655;28;20017;-64
2021/09/27 03:47:21;;;;;;;10.25;1.90;;;7.90;99.90;;;;;;5030405;28;20026;-64
2021/09/27 03:50:08;;;;;;;5.03;1.88;;;7.90;99.90;;;;;;5030382;28;20120;-64
2021/09/27 03:52:40;;;;;;;11.30;2.40;;;7.90;99.90;;;;;;5017260;28;20636;-64
2021/09/27 03:55:11;;;;;;;12.10;2.05;;;7.90;99.90;;;;;;5030371;28;20025;-64
2021/09/27 03:57:54;;;;;;;12.52;2.28;;;7.80;99.90;;;;;;5016490;28;20065;-64
2021/09/27 04:00:33;;;;;;;8.18;2.17;;;7.80;99.90;;;;;;5030047;28;20049;-64
2021/09/27 04:03:26;;;;;;;4.60;2.35;;;7.80;99.90;;;;;;5029980;28;20029;-64
2021/09/27 04:06:06;;;;;;;5.18;2.50;;;7.80;99.90;;;;;;5029839;28;20018;-64
2021/09/27 04:09:00;;;;;;;15.43;2.45;;;7.80;99.90;;;;;;5030011;28;20524;-64
2021/09/27 04:11:43;;;;;;;10.18;2.30;;;7.70;99.90;;;;;;5018109;28;20118;-64
2021/09/27 04:14:36;;;;;;;3.42;2.17;;;7.70;99.90;;;;;;5029891;28;20029;-64
2021/09/27 04:17:29;;;;;;;2.90;1.88;;;7.70;99.90;;;;;;5029887;28;20606;-64
2021/09/27 04:20:07;;;;;;;2.08;1.83;;;7.70;99.90;;;;;;5017537;28;20466;-64
2021/09/27 04:23:05;;;;;;;5.97;2.58;;;7.70;99.90;;;;;;5029992;28;20385;-64
2021/09/27 04:25:59;;;;;;;4.30;2.30;;;7.70;99.90;;;;;;5018299;28;20100;-64
2021/09/27 04:28:34;;;;;;;3.67;2.67;;;7.70;99.90;;;;;;5029359;28;20082;-65
2021/09/27 04:31:06;;;;;;;2.20;1.95;;;7.70;99.90;;;;;;5029431;28;20482;-65
2021/09/27 04:33:40;;;;;;;4.50;2.08;;;7.70;99.90;;;;;;5029424;28;20032;-64
2021/09/27 04:36:20;;;;;;;9.48;2.78;;;7.70;99.90;;;;;;5029429;28;20022;-64
2021/09/27 04:38:48;;;;;;;3.55;1.40;;;7.80;99.90;;;;;;5029258;28;20485;-68
2021/09/27 04:41:32;;;;;;;2.42;0.70;;;7.90;99.90;;;;;;5029317;28;20105;-66
2021/09/27 04:44:10;;;;;;;20.05;5.13;;;9.20;99.90;;;;;;5029150;28;20252;-65
2021/09/27 04:46:53;;;;;;;6.53;2.45;;;9.90;99.90;;;;;;5029240;28;20064;-66
2021/09/27 04:49:31;;;;;;;15.38;3.45;;;9.50;99.90;;;;;;5019078;28;20090;-66
2021/09/27 04:52:24;;;;;;;33.45;5.95;;;9.10;99.90;;;;;;5027464;28;20051;-66
2021/09/27 04:55:28;;;;;;;6.90;3.10;;;8.90;99.90;;;;;;5025109;28;20025;-65
2021/09/27 04:58:03;;;;;;;13.88;4.75;;;8.70;99.90;;;;;;5026870;28;20110;-65
2021/09/27 05:00:40;;;;;;;24.95;5.45;;;8.50;99.90;;;;;;5025715;28;20026;-64
2021/09/27 05:03:11;;;;;;;13.80;3.03;;;8.50;99.90;;;;;;5026092;28;20033;-64
2021/09/27 05:06:08;;;;;;;15.55;2.70;;;8.50;99.90;;;;;;5024179;28;20108;-64
2021/09/27 05:08:50;;;;;;;2.47;1.98;;;8.60;99.90;;;;;;5026907;28;20021;-65
2021/09/27 05:11:23;;;;;;;3.88;1.95;;;8.70;99.90;;;;;;5027903;28;20033;-64
2021/09/27 05:13:52;;;;;;;2.53;1.52;;;8.70;99.90;;;;;;5026428;28;20025;-64
2021/09/27 05:16:45;;;;;;;3.03;2.10;;;8.70;99.90;;;;;;5014849;28;20025;-65
2021/09/27 05:19:33;;;;;;;3.83;1.30;;;8.70;99.90;;;;;;5029141;28;20017;-65
2021/09/27 05:22:17;;;;;;;1.40;1.30;;;8.90;99.90;;;;;;5027138;28;20025;-67
2021/09/27 05:24:48;;;;;;;2.67;1.77;;;9.20;99.90;;;;;;5024531;28;20026;-64
2021/09/27 05:27:32;;;;;;;3.58;1.73;;;9.40;99.90;;;;;;5028279;28;20082;-65
2021/09/27 05:30:15;;;;;;;5.00;1.77;;;9.50;99.90;;;;;;5028332;28;20038;-65
2021/09/27 05:32:47;;;;;;;5.28;2.38;;;9.60;99.90;;;;;;5011455;28;20023;-65
2021/09/27 05:35:25;;;;;;;3.63;2.53;;;9.60;99.90;;;;;;5026586;28;20082;-65
2021/09/27 05:38:31;;;;;;;3.97;2.35;;;9.70;99.90;;;;;;5020026;28;20022;-64
2021/09/27 05:41:32;;;;;;;3.22;1.55;;;9.70;99.90;;;;;;5068348;28;20527;-65
2021/09/27 05:44:40;;;;;;;2.00;1.30;;;9.80;99.90;;;;;;5028033;28;20043;-65
2021/09/27 05:47:19;;;;;;;3.63;1.30;;;10.00;99.90;;;;;;5028476;28;20053;-65
2021/09/27 05:49:59;;;;;;;11.30;3.03;;;10.20;99.90;;;;;;5019981;28;20041;-65
2021/09/27 05:52:42;;;;;;;7.25;2.47;;;10.40;99.90;;;;;;5028149;28;20485;-65
2021/09/27 05:55:30;;;;;;;2.40;1.58;;;10.70;99.90;;;;;;5028142;28;20100;-66
2021/09/27 05:58:03;;;;;;;5.22;1.58;;;11.10;99.90;;;;;;5027091;28;20120;-67
2021/09/27 06:00:44;;;;;;;1.10;0.90;;;11.30;99.90;;;;;;5028166;28;20380;-65
2021/09/27 06:03:25;;;;;;;6.25;1.33;;;11.50;99.90;;;;;;5018314;28;20018;-65
2021/09/27 06:06:09;;;;;;;2.80;1.27;;;11.70;99.90;;;;;;5027814;28;20037;-65
2021/09/27 06:08:59;;;;;;;1.52;1.00;;;11.90;99.90;;;;;;5028217;28;20025;-65
2021/09/27 06:11:53;;;;;;;1.85;1.50;;;12.00;99.90;;;;;;5026041;28;20404;-65
2021/09/27 06:14:19;;;;;;;18.70;4.68;;;12.10;99.90;;;;;;5025949;28;20028;-66
2021/09/27 06:16:56;;;;;;;7.32;2.30;;;12.10;99.90;;;;;;5027931;28;20022;-65
2021/09/27 06:19:27;;;;;;;4.18;2.13;;;12.10;99.90;;;;;;5022757;28;20104;-66
2021/09/27 06:22:10;;;;;;;5.55;1.67;;;12.20;99.90;;;;;;5036897;28;20418;-67
2021/09/27 06:25:01;;;;;;;4.75;1.70;;;12.30;99.90;;;;;;5027622;28;20021;-66
2021/09/27 06:27:46;;;;;;;1.92;1.63;;;12.40;99.90;;;;;;5031283;27;20429;-66
2021/09/27 06:30:51;;;;;;;6.90;1.38;;;12.40;99.90;;;;;;5033447;27;20098;-62
2021/09/27 06:33:17;;;;;;;1.30;1.08;;;12.40;99.90;;;;;;5044076;27;20558;-63
2021/09/27 06:35:45;;;;;;;1.73;0.90;;;12.30;99.90;;;;;;5030541;28;20034;-62
2021/09/27 06:38:13;;;;;;;3.83;1.20;;;12.20;99.90;;;;;;5057862;27;20028;-63
2021/09/27 06:40:46;;;;;;;9.77;3.20;;;12.20;99.90;;;;;;5030780;28;20377;-63
2021/09/27 06:43:17;;;;;;;5.22;1.52;;;12.20;99.90;;;;;;5030644;28;20041;-63
2021/09/27 06:45:42;;;;;;;1.55;1.25;;;12.20;99.90;;;;;;5038494;27;20477;-63
2021/09/27 06:48:08;;;;;;;4.53;1.10;;;12.30;99.90;;;;;;5030259;28;20036;-66
2021/09/27 06:50:34;;;;;;;1.30;0.90;;;12.30;99.90;;;;;;5030777;28;20112;-67
2021/09/27 06:53:00;;;;;;;3.08;0.98;;;12.40;99.90;;;;;;5031011;28;20025;-69
2021/09/27 06:55:25;;;;;;;1.45;0.68;;;12.50;99.90;;;;;;5030799;28;20028;-72
2021/09/27 06:57:51;;;;;;;2.50;1.10;;;12.70;99.90;;;;;;5030707;28;20057;-67
2021/09/27 07:00:17;;;;;;;5.63;1.98;;;12.60;99.90;;;;;;5030611;28;20030;-67
2021/09/27 07:02:43;;;;;;;11.75;1.88;;;12.40;99.90;;;;;;5029277;28;20095;-67
2021/09/27 07:05:10;;;;;;;2.80;0.85;;;12.40;99.90;;;;;;5028729;28;20029;-67
2021/09/27 07:07:37;;;;;;;2.63;1.13;;;12.40;99.90;;;;;;5027899;28;20044;-68
2021/09/27 07:10:06;;;;;;;1.88;0.90;;;12.40;99.90;;;;;;5030140;28;20454;-67
2021/09/27 07:12:32;;;;;;;3.53;1.08;;;12.50;99.90;;;;;;5029537;28;20026;-67
2021/09/27 07:14:58;;;;;;;4.22;1.05;;;12.50;99.90;;;;;;5030523;28;20488;-67
2021/09/27 07:17:23;;;;;;;1.77;0.70;;;12.40;99.90;;;;;;5030799;28;20048;-67
2021/09/27 07:19:49;;;;;;;4.18;0.88;;;12.30;99.90;;;;;;5029904;28;20036;-67
2021/09/27 07:22:15;;;;;;;3.63;1.13;;;12.30;99.90;;;;;;5030453;28;20074;-67
2021/09/27 07:24:41;;;;;;;6.63;1.50;;;12.30;99.90;;;;;;5030389;28;20029;-67
2021/09/27 07:27:07;;;;;;;3.17;1.30;;;12.20;99.90;;;;;;5030564;28;20014;-67
2021/09/27 07:29:33;;;;;;;2.75;0.90;;;12.20;99.90;;;;;;5028134;28;20423;-68
2021/09/27 07:31:59;;;;;;;1.17;0.90;;;12.10;99.90;;;;;;5029475;28;20096;-66
2021/09/27 07:34:25;;;;;;;22.30;1.90;;;12.10;99.90;;;;;;5028528;28;20090;-69
2021/09/27 07:36:51;;;;;;;3.47;0.93;;;12.10;99.90;;;;;;5029659;28;20021;-70
2021/09/27 07:39:19;;;;;;;7.38;1.30;;;12.10;99.90;;;;;;5030095;28;20086;-66
2021/09/27 07:41:45;;;;;;;3.58;1.30;;;12.20;99.90;;;;;;5028849;28;20401;-66
2021/09/27 07:44:11;;;;;;;2.17;1.13;;;12.20;99.90;;;;;;5030198;28;20052;-66
2021/09/27 07:46:38;;;;;;;10.25;2.80;;;12.20;99.90;;;;;;5030096;28;20608;-66
2021/09/27 07:49:04;;;;;;;7.22;0.98;;;12.20;99.90;;;;;;5029740;28;20493;-66
2021/09/27 07:51:30;;;;;;;10.13;2.15;;;12.30;99.90;;;;;;5030098;28;20408;-66
2021/09/27 07:53:56;;;;;;;18.52;5.03;;;12.30;99.90;;;;;;5029924;28;20022;-66
2021/09/27 07:56:22;;;;;;;3.05;1.50;;;12.30;99.90;;;;;;5029995;28;20073;-66
2021/09/27 07:58:47;;;;;;;7.72;1.10;;;12.30;99.90;;;;;;5030046;28;20599;-66
2021/09/27 08:01:13;;;;;;;4.20;1.05;;;12.30;99.90;;;;;;5030025;28;20637;-66
2021/09/27 08:03:40;;;;;;;2.17;0.90;;;12.40;99.90;;;;;;5022982;28;20039;-66
2021/09/27 08:06:06;;;;;;;26.77;2.58;;;12.40;99.90;;;;;;5022415;28;20049;-66
2021/09/27 08:08:32;;;;;;;2.97;0.88;;;12.40;99.90;;;;;;5029764;28;20064;-66
2021/09/27 08:10:58;;;;;;;7.65;1.50;;;12.40;99.90;;;;;;5029570;28;20392;-66
2021/09/27 08:13:25;;;;;;;2.95;1.65;;;12.40;99.90;;;;;;5029674;28;20560;-66
2021/09/27 08:15:53;;;;;;;7.07;1.17;;;12.40;99.90;;;;;;5029616;28;20107;-66
2021/09/27 08:18:20;;;;;;;5.10;1.27;;;12.40;99.90;;;;;;5029493;28;20018;-66
2021/09/27 08:20:53;;;;;;;19.00;1.60;;;12.50;99.90;;;;;;5029576;28;20083;-66
2021/09/27 08:23:20;;;;;;;10.98;1.30;;;12.50;99.90;;;;;;5028368;28;20017;-66
2021/09/27 08:25:46;;;;;;;4.13;1.05;;;12.60;99.90;;;;;;5029764;28;20038;-66
2021/09/27 08:28:15;;;;;;;6.72;1.30;;;12.60;99.90;;;;;;5029363;28;20032;-66
2021/09/27 08:30:55;;;;;;;3.42;1.40;;;12.70;99.90;;;;;;5029728;28;20029;-66
2021/09/27 08:33:21;;;;;;;;;;;12.80;99.90;;;;;;5029956;28;20070;-66
2021/09/27 08:35:49;;;;;;;3.30;0.52;;;12.90;99.90;;;;;;5029468;28;20448;-66
2021/09/27 08:38:16;;;;;;;33.55;1.67;;;13.00;99.90;;;;;;5029523;28;20033;-66
2021/09/27 08:41:04;;;;;;;9.05;1.75;;;13.00;99.90;;;;;;5029375;28;20025;-66
2021/09/27 08:43:35;;;;;;;6.50;1.15;;;13.10;99.90;;;;;;5029132;28;20025;-66
2021/09/27 08:46:09;;;;;;;6.28;1.30;;;13.20;99.90;;;;;;5028372;28;20448;-66
2021/09/27 08:48:55;;;;;;;22.15;1.58;;;13.20;99.90;;;;;;5029166;28;20025;-66
2021/09/27 08:51:21;;;;;;;83.55;4.35;;;13.20;99.90;;;;;;5029231;28;20037;-66
2021/09/27 08:53:51;;;;;;;11.48;1.05;;;13.30;99.90;;;;;;5029090;28;20029;-66
2021/09/27 08:56:50;;;;;;;12.07;1.10;;;13.40;99.90;;;;;;5029046;28;20076;-66
2021/09/27 08:59:40;;;;;;;26.52;1.42;;;13.50;99.90;;;;;;5029129;28;20100;-66
2021/09/27 09:02:43;;;;;;;14.57;0.85;;;13.50;99.90;;;;;;5028699;28;20026;-66
2021/09/27 09:05:18;;;;;;;11.52;1.70;;;13.60;99.90;;;;;;5057989;28;20069;-67
2021/09/27 09:07:50;;;;;;;12.07;0.85;;;13.60;99.90;;;;;;5028997;28;20025;-67
2021/09/27 09:10:31;;;;;;;3.72;0.70;;;13.60;99.90;;;;;;5028890;28;20081;-66
2021/09/27 09:13:00;;;;;;;6.70;0.85;;;13.60;99.90;;;;;;5015481;28;20024;-66
2021/09/27 09:15:29;;;;;;;9.60;0.67;;;13.60;99.90;;;;;;5029169;28;20029;-66
2021/09/27 09:18:06;;;;;;;3.50;0.57;;;13.70;99.90;;;;;;5028811;28;20260;-66
2021/09/27 09:20:53;;;;;;;4.03;0.70;;;13.70;99.90;;;;;;5029057;28;20017;-66
2021/09/27 09:23:44;;;;;;;10.68;1.00;;;13.80;99.90;;;;;;5028787;28;20022;-66
2021/09/27 09:26:15;;;;;;;12.60;1.20;;;13.80;99.90;;;;;;5028810;28;20022;-66
2021/09/27 09:28:44;;;;;;;9.38;0.88;;;13.90;99.90;;;;;;5014853;28;20048;-66
2021/09/27 09:31:17;;;;;;;14.27;1.00;;;14.00;99.90;;;;;;5028775;28;20054;-66
2021/09/27 09:33:43;;;;;;;12.50;1.52;;;14.00;99.90;;;;;;5028848;28;20437;-66
2021/09/27 09:36:13;;;;;;;6.90;0.90;;;14.10;99.90;;;;;;5028749;28;20109;-66
2021/09/27 09:38:41;;;;;;;;;;;14.20;99.90;;;;;;5028904;28;20055;-66
2021/09/27 09:41:07;;;;;;;15.25;1.13;;;14.30;99.90;;;;;;5028774;28;19905;-66
2021/09/27 09:43:33;;;;;;;3.92;0.80;;;14.40;99.90;;;;;;5028210;28;20081;-66
2021/09/27 09:46:11;;;;;;;6.13;1.10;;;14.50;99.90;;;;;;5028097;28;20096;-67
2021/09/27 09:49:10;;;;;;;17.10;1.15;;;14.50;99.90;;;;;;5028091;28;20077;-66
2021/09/27 09:51:56;;;;;;;19.05;1.10;;;14.70;99.90;;;;;;5028155;28;20162;-66
2021/09/27 09:54:25;;;;;;;24.25;2.00;;;14.80;99.90;;;;;;5016017;28;20117;-65
2021/09/27 09:57:00;;;;;;;19.65;1.75;;;14.80;99.90;;;;;;5028378;28;20506;-65
2021/09/27 09:59:37;;;;;;;20.38;2.22;;;14.90;99.90;;;;;;5019307;28;20078;-66
2021/09/27 10:02:15;;;;;;;26.40;1.48;;;15.00;99.90;;;;;;5031513;28;20026;-66
2021/09/27 10:05:09;;;;;;;54.08;3.67;;;15.10;99.90;;;;;;5031523;28;20017;-66
2021/09/27 10:07:49;;;;;;;9.07;0.82;;;15.20;99.90;;;;;;5031352;28;20411;-66
2021/09/27 10:10:33;;;;;;;;;;;15.20;99.90;;;;;;5031854;28;20516;-65
2021/09/27 10:13:02;;;;;;;33.33;1.80;;;15.30;99.90;;;;;;5018467;28;19923;-65
2021/09/27 10:15:34;;;;;;;9.85;1.17;;;15.30;99.90;;;;;;5031729;28;20545;-65
2021/09/27 10:18:14;;;;;;;26.90;1.67;;;15.40;99.90;;;;;;5031465;28;20022;-65
2021/09/27 10:20:43;;;;;;;8.07;1.02;;;15.40;99.90;;;;;;5031109;28;20094;-65
2021/09/27 10:23:11;;;;;;;11.52;1.00;;;15.40;99.90;;;;;;5031223;28;20426;-65
2021/09/27 10:25:43;;;;;;;14.82;1.33;;;15.40;99.90;;;;;;5031464;28;20022;-65
2021/09/27 10:28:19;;;;;;;15.50;1.52;;;15.50;99.90;;;;;;5030943;28;20021;-65
2021/09/27 10:30:59;;;;;;;23.50;1.83;;;15.50;99.90;;;;;;5031327;28;20040;-65
2021/09/27 10:33:31;;;;;;;14.88;1.10;;;15.60;99.90;;;;;;5031303;28;20100;-65
2021/09/27 10:36:13;;;;;;;8.68;0.90;;;15.70;99.90;;;;;;5030936;28;20059;-66
2021/09/27 10:38:46;;;;;;;13.93;1.25;;;15.80;99.90;;;;;;5029681;28;20098;-67
2021/09/27 10:41:35;;;;;;;12.43;1.70;;;15.90;99.90;;;;;;5031224;28;20022;-67
2021/09/27 10:44:29;;;;;;;11.63;0.88;;;15.90;99.90;;;;;;5028589;28;20116;-67
2021/09/27 10:47:02;;;;;;;16.17;1.08;;;15.90;99.90;;;;;;5031091;28;20025;-67
2021/09/27 10:49:38;;;;;;;5.05;0.80;;;16.00;99.90;;;;;;5030921;28;20473;-68
2021/09/27 10:52:35;;;;;;;10.45;1.00;;;16.10;99.90;;;;;;5030841;28;20108;-68
2021/09/27 10:55:09;;;;;;;10.13;1.17;;;16.20;99.90;;;;;;5031346;28;20028;-68
2021/09/27 10:57:51;;;;;;;30.45;3.03;;;16.30;99.90;;;;;;5034829;28;20068;-69
2021/09/27 11:00:27;;;;;;;13.02;1.00;;;16.30;99.90;;;;;;5030940;28;20063;-69
2021/09/27 11:03:29;;;;;;;9.48;1.35;;;16.30;99.90;;;;;;5030831;28;20434;-68
2021/09/27 11:06:21;;;;;;;9.27;1.20;;;16.30;99.90;;;;;;5016584;28;20061;-68
2021/09/27 11:09:05;;;;;;;11.45;0.95;;;16.40;99.90;;;;;;5021609;28;20033;-67
2021/09/27 11:11:30;;;;;;;12.13;1.42;;;16.40;99.90;;;;;;5029366;28;20033;-67
2021/09/27 11:14:17;;;;;;;25.00;2.20;;;16.40;99.90;;;;;;5030109;28;20028;-67
2021/09/27 11:16:46;;;;;;;19.85;1.70;;;16.40;99.90;;;;;;5030538;28;20019;-67
2021/09/27 11:19:39;;;;;;;4.95;1.02;;;16.50;99.90;;;;;;5030368;28;20521;-68
2021/09/27 11:22:13;;;;;;;16.38;1.75;;;16.50;99.90;;;;;;5018193;28;20489;-67
2021/09/27 11:24:42;;;;;;;8.27;1.67;;;16.50;99.90;;;;;;5030426;28;20032;-68
2021/09/27 11:27:13;;;;;;;8.25;1.35;;;16.60;99.90;;;;;;5030323;28;20101;-69
2021/09/27 11:29:57;;;;;;;20.73;1.58;;;16.50;99.90;;;;;;5030639;28;20034;-69
2021/09/27 11:32:28;;;;;;;6.72;1.50;;;16.50;99.90;;;;;;5019049;28;20026;-66
2021/09/27 11:34:58;;;;;;;15.23;1.10;;;16.60;99.90;;;;;;5030324;28;20057;-66
2021/09/27 11:37:23;;;;;;;6.70;1.20;;;16.50;99.90;;;;;;5030109;28;20045;-67
2021/09/27 11:40:00;;;;;;;15.50;1.73;;;16.50;99.90;;;;;;5030588;28;20093;-66
2021/09/27 11:42:37;;;;;;;6.95;1.30;;;16.50;99.90;;;;;;5017982;28;20029;-70
2021/09/27 11:45:14;;;;;;;10.55;1.80;;;16.50;99.90;;;;;;5030424;28;20021;-66
2021/09/27 11:47:40;;;;;;;15.82;1.80;;;16.50;99.90;;;;;;5030332;28;20068;-66
2021/09/27 11:50:15;;;;;;;10.70;1.50;;;16.50;99.90;;;;;;5030234;28;20465;-66
2021/09/27 11:53:10;;;;;;;12.43;1.50;;;16.50;99.90;;;;;;5029919;28;20028;-66
2021/09/27 11:55:44;;;;;;;17.55;1.60;;;16.40;99.90;;;;;;5029500;28;20543;-66
2021/09/27 11:58:16;;;;;;;13.68;1.83;;;16.40;99.90;;;;;;5029958;28;20121;-66
2021/09/27 12:01:06;;;;;;;12.10;1.50;;;16.30;99.90;;;;;;5030443;28;20021;-66
2021/09/27 12:03:41;;;;;;;12.30;1.45;;;16.40;99.90;;;;;;5030046;28;20381;-66
2021/09/27 12:06:22;;;;;;;6.50;1.30;;;16.30;99.90;;;;;;5029820;28;20098;-66
2021/09/27 12:08:55;;;;;;;17.75;2.47;;;16.30;99.90;;;;;;5029759;28;20026;-66
2021/09/27 12:11:21;;;;;;;12.48;1.60;;;16.30;99.90;;;;;;5029775;28;20397;-66
2021/09/27 12:14:00;;;;;;;16.77;1.35;;;16.30;99.90;;;;;;5029817;28;20028;-67
2021/09/27 12:16:38;;;;;;;9.75;1.52;;;16.30;99.90;;;;;;5021203;28;20045;-66
2021/09/27 12:19:27;;;;;;;3.83;1.10;;;16.30;99.90;;;;;;5029955;28;20382;-66
2021/09/27 12:22:05;;;;;;;15.95;1.77;;;16.30;99.90;;;;;;5014824;28;20059;-67
2021/09/27 12:24:35;;;;;;;6.03;1.20;;;16.30;99.90;;;;;;5029716;28;20064;-66
2021/09/27 12:27:14;;;;;;;7.97;1.52;;;16.30;99.90;;;;;;5016420;28;20022;-66
2021/09/27 12:29:58;;;;;;;42.33;3.40;;;16.30;99.90;;;;;;5029851;28;20049;-66
2021/09/27 12:32:46;;;;;;;16.92;1.58;;;16.30;99.90;;;;;;5029525;28;20108;-66
2021/09/27 12:35:41;;;;;;;11.98;1.67;;;16.30;99.90;;;;;;5029274;28;20124;-65
2021/09/27 12:38:07;;;;;;;9.50;1.92;;;16.30;99.90;;;;;;5033045;28;20445;-66
2021/09/27 12:40:39;;;;;;;14.60;1.50;;;16.30;99.90;;;;;;5026404;28;20068;-66
2021/09/27 12:43:16;;;;;;;6.90;1.30;;;16.30;99.90;;;;;;5029395;28;20026;-66
2021/09/27 12:45:44;;;;;;;23.23;2.10;;;16.30;99.90;;;;;;5026288;28;20022;-65
2021/09/27 12:48:25;;;;;;;21.25;1.50;;;16.30;99.90;;;;;;5029110;28;20056;-67
2021/09/27 12:51:00;;;;;;;9.18;1.27;;;16.30;99.90;;;;;;5026557;28;20032;-66
2021/09/27 12:54:04;;;;;;;8.18;1.00;;;16.30;99.90;;;;;;5028979;28;20108;-66
2021/09/27 12:56:32;;;;;;;11.98;1.23;;;16.30;99.90;;;;;;5015418;28;20128;-66
2021/09/27 12:59:09;;;;;;;6.93;1.00;;;16.30;99.90;;;;;;5029012;28;20025;-66
2021/09/27 13:01:47;;;;;;;8.27;1.45;;;16.30;99.90;;;;;;5029044;28;20037;-65
2021/09/27 13:04:12;;;;;;;4.53;1.20;;;16.30;99.90;;;;;;5028812;28;20021;-66
2021/09/27 13:07:00;;;;;;;7.55;1.80;;;16.30;99.90;;;;;;5029119;28;20066;-66
2021/09/27 13:09:32;;;;;;;14.75;2.20;;;16.30;99.90;;;;;;5028638;28;20034;-66
2021/09/27 13:12:28;;;;;;;19.45;1.83;;;16.30;99.90;;;;;;5028604;28;20508;-66
2021/09/27 13:15:18;;;;;;;16.25;1.90;;;16.30;99.90;;;;;;5023549;28;20029;-66
2021/09/27 13:18:02;;;;;;;;;;;16.30;99.90;;;;;;5028848;28;20389;-65
2021/09/27 13:20:31;;;;;;;10.48;1.38;;;16.30;99.90;;;;;;5028495;28;19905;-66
2021/09/27 13:22:58;;;;;;;10.45;1.60;;;16.30;99.90;;;;;;5028575;28;20488;-65
2021/09/27 13:25:37;;;;;;;134.13;13.45;;;16.60;99.90;;;;;;5028641;28;20033;-66
2021/09/27 13:28:08;;;;;;;12.93;2.50;;;16.60;99.90;;;;;;5028638;28;20021;-66
2021/09/27 13:30:37;;;;;;;25.42;2.20;;;16.50;99.90;;;;;;5028687;28;20029;-65
2021/09/27 13:33:13;;;;;;;45.70;3.90;;;16.40;99.90;;;;;;5026904;28;20108;-66
2021/09/27 13:35:59;;;;;;;7.93;1.60;;;16.40;99.90;;;;;;5028824;28;20026;-66
2021/09/27 13:38:44;;;;;;;34.03;2.58;;;16.40;99.90;;;;;;5028312;28;20033;-66
2021/09/27 13:41:15;;;;;;;13.77;1.98;;;16.30;99.90;;;;;;5028689;28;20055;-65
2021/09/27 13:43:47;;;;;;;64.53;3.38;;;16.30;99.90;;;;;;5027599;28;20092;-65
2021/09/27 13:46:23;;;;;;;7.85;1.48;;;16.30;99.90;;;;;;5025016;28;20124;-66
2021/09/27 13:48:48;;;;;;;9.77;2.33;;;16.30;99.90;;;;;;5027773;28;20025;-66
2021/09/27 13:51:17;;;;;;;8.88;1.90;;;16.20;99.90;;;;;;5028112;28;20022;-65
2021/09/27 13:53:47;;;;;;;10.30;1.50;;;16.20;99.90;;;;;;5028332;28;20056;-66
2021/09/27 13:56:17;;;;;;;10.25;1.58;;;16.20;99.90;;;;;;5017227;28;20045;-65
2021/09/27 13:58:45;;;;;;;25.30;1.92;;;16.20;99.90;;;;;;5028248;28;20022;-65
2021/09/27 14:01:11;;;;;;;10.65;1.80;;;16.20;99.90;;;;;;5028318;28;20022;-65
2021/09/27 14:03:37;;;;;;;31.40;2.05;;;16.20;99.90;;;;;;5028129;28;20026;-65
2021/09/27 14:06:03;;;;;;;15.75;1.52;;;16.10;99.90;;;;;;5028056;28;20032;-65
2021/09/27 14:08:29;;;;;;;19.35;1.98;;;16.10;99.90;;;;;;5027966;28;20548;-65
2021/09/27 14:10:56;;;;;;;9.52;1.45;;;16.10;99.90;;;;;;5028028;28;20170;-65
2021/09/27 14:13:28;;;;;;;12.35;1.58;;;16.10;99.90;;;;;;5028017;28;20044;-65
2021/09/27 14:15:56;;;;;;;21.75;1.83;;;16.10;99.90;;;;;;5028193;28;20069;-66
2021/09/27 14:18:22;;;;;;;23.58;2.67;;;16.10;99.90;;;;;;5027896;28;20026;-66